UAL24 ZSPD-ZBLA
Flight info
| Callsign | UAL24 |
|---|---|
| Flight time | N/A |
| Altitude | 38100 |
| Route | IBEGI B221 XDX/K0848S1130 DCT URBAD W172 VEPGI/K0846S1190 W172 IGDEG W173 NIXEP W8 DOBGA W202 UDETI A588 HRB/K0854S1220 B451 HLD |
| Aircraft | B737/M-SDE2E3FGHIRWXY/LB1 |
Departure
| Time | N/A |
|---|---|
| Airport | Shanghai Pudong International Airport (ZSPD) |
Arrival
| Time | 2026-05-05 16:23 |
|---|---|
| Airport | Hulunbuir Hailar Airport (ZBLA) |
| Time | Latitude | Longitude | Altitude | Speed | Heading |
|---|---|---|---|---|---|
| 2026-05-05 14:03 | 36.65417 | 120.58442 | 38008 ft | 441 kts | 4° |
| 2026-05-05 14:03 | 36.68456 | 120.58946 | 38010 ft | 441 kts | 5° |
| 2026-05-05 14:03 | 36.74501 | 120.59981 | 38009 ft | 441 kts | 5° |
| 2026-05-05 14:04 | 36.80582 | 120.61039 | 38004 ft | 441 kts | 5° |
| 2026-05-05 14:04 | 36.86650 | 120.62094 | 38001 ft | 440 kts | 5° |
| 2026-05-05 14:05 | 36.92719 | 120.63151 | 37995 ft | 440 kts | 5° |
| 2026-05-05 14:05 | 36.98779 | 120.64253 | 37999 ft | 440 kts | 5° |
| 2026-05-05 14:06 | 37.04798 | 120.65385 | 37999 ft | 439 kts | 5° |
| 2026-05-05 14:06 | 37.10841 | 120.66520 | 37993 ft | 439 kts | 5° |
| 2026-05-05 14:07 | 37.16887 | 120.67651 | 37988 ft | 439 kts | 5° |
| 2026-05-05 14:07 | 37.22932 | 120.68784 | 37990 ft | 438 kts | 5° |
| 2026-05-05 14:08 | 37.28954 | 120.69913 | 37989 ft | 438 kts | 5° |
| 2026-05-05 14:08 | 37.34975 | 120.71045 | 37989 ft | 438 kts | 5° |
| 2026-05-05 14:09 | 37.40966 | 120.72171 | 37986 ft | 437 kts | 5° |
| 2026-05-05 14:09 | 37.46978 | 120.73302 | 37987 ft | 437 kts | 5° |
| 2026-05-05 14:10 | 37.52993 | 120.74440 | 37982 ft | 437 kts | 5° |
| 2026-05-05 14:10 | 37.59002 | 120.75565 | 37984 ft | 436 kts | 4° |
| 2026-05-05 14:11 | 37.65023 | 120.76352 | 37979 ft | 434 kts | 2° |
| 2026-05-05 14:11 | 37.71039 | 120.77002 | 37980 ft | 434 kts | 2° |
| 2026-05-05 14:12 | 37.77060 | 120.77689 | 37978 ft | 434 kts | 2° |
| 2026-05-05 14:12 | 37.83075 | 120.78404 | 37961 ft | 434 kts | 2° |
| 2026-05-05 14:13 | 37.89059 | 120.79120 | 37969 ft | 434 kts | 2° |
| 2026-05-05 14:13 | 37.95079 | 120.79839 | 37967 ft | 434 kts | 2° |
| 2026-05-05 14:14 | 38.01024 | 120.81286 | 37979 ft | 439 kts | 15° |
| 2026-05-05 14:14 | 38.06537 | 120.84766 | 37984 ft | 445 kts | 27° |
| 2026-05-05 14:15 | 38.11803 | 120.88839 | 37973 ft | 446 kts | 27° |
| 2026-05-05 14:15 | 38.17155 | 120.92906 | 37969 ft | 445 kts | 26° |
| 2026-05-05 14:16 | 38.22406 | 120.97021 | 37952 ft | 450 kts | 34° |
| 2026-05-05 14:16 | 38.24680 | 120.99785 | 37976 ft | 456 kts | 45° |
| 2026-05-05 14:16 | 38.26548 | 121.03071 | 37961 ft | 462 kts | 57° |
| 2026-05-05 14:17 | 38.29244 | 121.10564 | 37966 ft | 467 kts | 63° |
| 2026-05-05 14:17 | 38.31774 | 121.18180 | 37957 ft | 468 kts | 63° |
| 2026-05-05 14:18 | 38.34365 | 121.25784 | 37958 ft | 468 kts | 63° |
| 2026-05-05 14:18 | 38.36988 | 121.33376 | 37960 ft | 468 kts | 63° |
| 2026-05-05 14:19 | 38.39614 | 121.40987 | 37960 ft | 469 kts | 63° |
| 2026-05-05 14:19 | 38.42288 | 121.48562 | 37961 ft | 467 kts | 60° |
| 2026-05-05 14:20 | 38.45244 | 121.55930 | 37965 ft | 466 kts | 59° |
| 2026-05-05 14:20 | 38.48250 | 121.63264 | 37961 ft | 467 kts | 59° |
| 2026-05-05 14:21 | 38.51224 | 121.70638 | 37969 ft | 467 kts | 59° |
| 2026-05-05 14:21 | 38.54153 | 121.77979 | 37960 ft | 467 kts | 59° |
| 2026-05-05 14:22 | 38.57102 | 121.85397 | 37961 ft | 467 kts | 59° |
| 2026-05-05 14:22 | 38.60041 | 121.92805 | 37967 ft | 467 kts | 60° |
| 2026-05-05 14:23 | 38.62980 | 122.00228 | 37962 ft | 467 kts | 60° |
| 2026-05-05 14:23 | 38.65913 | 122.07655 | 37961 ft | 468 kts | 60° |
| 2026-05-05 14:24 | 38.69261 | 122.14676 | 37965 ft | 462 kts | 45° |
| 2026-05-05 14:24 | 38.74034 | 122.20017 | 37966 ft | 453 kts | 28° |
| 2026-05-05 14:25 | 38.79429 | 122.24178 | 37958 ft | 453 kts | 27° |
| 2026-05-05 14:25 | 38.84831 | 122.28356 | 37959 ft | 454 kts | 27° |
| 2026-05-05 14:26 | 38.90201 | 122.32613 | 37955 ft | 454 kts | 28° |
| 2026-05-05 14:26 | 38.95573 | 122.36880 | 37963 ft | 454 kts | 28° |
| 2026-05-05 14:27 | 39.00953 | 122.41147 | 37955 ft | 455 kts | 28° |
| 2026-05-05 14:27 | 39.06341 | 122.45430 | 37960 ft | 455 kts | 28° |
| 2026-05-05 14:28 | 39.11698 | 122.49700 | 37967 ft | 456 kts | 28° |
| 2026-05-05 14:28 | 39.17101 | 122.54014 | 37964 ft | 456 kts | 28° |
| 2026-05-05 14:29 | 39.22500 | 122.58334 | 37968 ft | 456 kts | 28° |
| 2026-05-05 14:29 | 39.27904 | 122.62645 | 37961 ft | 456 kts | 26° |
| 2026-05-05 14:30 | 39.33427 | 122.66635 | 37966 ft | 455 kts | 24° |
| 2026-05-05 14:30 | 39.39004 | 122.70515 | 37967 ft | 455 kts | 24° |
| 2026-05-05 14:31 | 39.44540 | 122.74416 | 37954 ft | 455 kts | 25° |
| 2026-05-05 14:31 | 39.50087 | 122.78377 | 37964 ft | 456 kts | 25° |
| 2026-05-05 14:32 | 39.55631 | 122.82355 | 37959 ft | 456 kts | 25° |
| 2026-05-05 14:32 | 39.61179 | 122.86344 | 37959 ft | 456 kts | 25° |
| 2026-05-05 14:33 | 39.66728 | 122.90339 | 37956 ft | 456 kts | 25° |
| 2026-05-05 14:33 | 39.72276 | 122.94339 | 37956 ft | 457 kts | 25° |
| 2026-05-05 14:34 | 39.77831 | 122.98352 | 37956 ft | 457 kts | 25° |
| 2026-05-05 14:34 | 39.82453 | 123.01697 | 37956 ft | 457 kts | 25° |
| 2026-05-05 14:35 | 39.88006 | 123.05722 | 37953 ft | 457 kts | 25° |
| 2026-05-05 14:35 | 39.94460 | 123.10407 | 37946 ft | 457 kts | 25° |
| 2026-05-05 14:36 | 39.99110 | 123.13796 | 37959 ft | 457 kts | 25° |
| 2026-05-05 14:36 | 40.04670 | 123.17848 | 37943 ft | 457 kts | 24° |
| 2026-05-05 14:37 | 40.10209 | 123.21844 | 37959 ft | 458 kts | 24° |
| 2026-05-05 14:37 | 40.15804 | 123.25855 | 37947 ft | 458 kts | 24° |
| 2026-05-05 14:38 | 40.21401 | 123.29880 | 37953 ft | 458 kts | 24° |
| 2026-05-05 14:38 | 40.26960 | 123.33894 | 37941 ft | 459 kts | 24° |
| 2026-05-05 14:39 | 40.32555 | 123.37943 | 37955 ft | 459 kts | 24° |
| 2026-05-05 14:39 | 40.38144 | 123.41993 | 37942 ft | 459 kts | 24° |
| 2026-05-05 14:40 | 40.43727 | 123.46046 | 37940 ft | 459 kts | 24° |
| 2026-05-05 14:40 | 40.49320 | 123.50119 | 37934 ft | 459 kts | 24° |
| 2026-05-05 14:41 | 40.54912 | 123.54197 | 37937 ft | 459 kts | 24° |
| 2026-05-05 14:41 | 40.60495 | 123.58273 | 37929 ft | 459 kts | 24° |
| 2026-05-05 14:42 | 40.66044 | 123.62329 | 37938 ft | 459 kts | 24° |
| 2026-05-05 14:42 | 40.71624 | 123.66417 | 37921 ft | 459 kts | 24° |
| 2026-05-05 14:43 | 40.77208 | 123.70517 | 37921 ft | 459 kts | 24° |
| 2026-05-05 14:43 | 40.82794 | 123.74625 | 37915 ft | 460 kts | 24° |
| 2026-05-05 14:44 | 40.88395 | 123.78670 | 37924 ft | 459 kts | 23° |
| 2026-05-05 14:44 | 40.94030 | 123.82671 | 37919 ft | 459 kts | 23° |
| 2026-05-05 14:45 | 40.99668 | 123.86688 | 37919 ft | 460 kts | 23° |
| 2026-05-05 14:45 | 41.05259 | 123.90695 | 37914 ft | 460 kts | 23° |
| 2026-05-05 14:46 | 41.10895 | 123.94751 | 37911 ft | 461 kts | 23° |
| 2026-05-05 14:46 | 41.16537 | 123.98812 | 37911 ft | 461 kts | 23° |
| 2026-05-05 14:47 | 41.22185 | 124.02882 | 37914 ft | 462 kts | 23° |
| 2026-05-05 14:47 | 41.27840 | 124.06962 | 37915 ft | 462 kts | 23° |
| 2026-05-05 14:48 | 41.33497 | 124.11069 | 37918 ft | 464 kts | 23° |
| 2026-05-05 14:48 | 41.39167 | 124.15184 | 37912 ft | 464 kts | 23° |
| 2026-05-05 14:49 | 41.44787 | 124.19322 | 37911 ft | 465 kts | 24° |
| 2026-05-05 14:49 | 41.50420 | 124.23574 | 37905 ft | 465 kts | 24° |
| 2026-05-05 14:50 | 41.56060 | 124.27843 | 37914 ft | 465 kts | 24° |
| 2026-05-05 14:50 | 41.61694 | 124.32104 | 37914 ft | 465 kts | 24° |
| 2026-05-05 14:51 | 41.67330 | 124.36373 | 37919 ft | 466 kts | 24° |
| 2026-05-05 14:51 | 41.72972 | 124.40645 | 37912 ft | 466 kts | 24° |
| 2026-05-05 14:52 | 41.78611 | 124.44920 | 37915 ft | 465 kts | 24° |
| 2026-05-05 14:52 | 41.84246 | 124.49207 | 37906 ft | 466 kts | 24° |
| 2026-05-05 14:53 | 41.89879 | 124.53511 | 37909 ft | 466 kts | 24° |
| 2026-05-05 14:53 | 41.95476 | 124.57790 | 37902 ft | 466 kts | 24° |
| 2026-05-05 14:54 | 42.01132 | 124.62020 | 37908 ft | 464 kts | 21° |
| 2026-05-05 14:54 | 42.06902 | 124.65942 | 37907 ft | 464 kts | 20° |
| 2026-05-05 14:55 | 42.12682 | 124.69822 | 37909 ft | 465 kts | 21° |
| 2026-05-05 14:55 | 42.18464 | 124.73765 | 37908 ft | 466 kts | 21° |
| 2026-05-05 14:56 | 42.24243 | 124.77750 | 37905 ft | 467 kts | 21° |
| 2026-05-05 14:56 | 42.30034 | 124.81757 | 37904 ft | 467 kts | 21° |
| 2026-05-05 14:57 | 42.35793 | 124.85744 | 37903 ft | 468 kts | 21° |
| 2026-05-05 14:57 | 42.41595 | 124.89769 | 37907 ft | 468 kts | 21° |
| 2026-05-05 14:58 | 42.47392 | 124.93800 | 37906 ft | 468 kts | 21° |
| 2026-05-05 14:58 | 42.53153 | 124.97811 | 37905 ft | 468 kts | 21° |
| 2026-05-05 14:59 | 42.58946 | 125.01861 | 37906 ft | 468 kts | 21° |
| 2026-05-05 14:59 | 42.64740 | 125.05915 | 37903 ft | 469 kts | 21° |
| 2026-05-05 15:00 | 42.69601 | 125.09324 | 37898 ft | 469 kts | 21° |
| 2026-05-05 15:00 | 42.76337 | 125.14057 | 37896 ft | 469 kts | 21° |
| 2026-05-05 15:01 | 42.82129 | 125.18135 | 37900 ft | 469 kts | 21° |
| 2026-05-05 15:01 | 42.87943 | 125.22193 | 37893 ft | 469 kts | 21° |
| 2026-05-05 15:02 | 42.93778 | 125.26231 | 37893 ft | 469 kts | 21° |
| 2026-05-05 15:02 | 42.99562 | 125.30244 | 37887 ft | 470 kts | 21° |
| 2026-05-05 15:03 | 43.05398 | 125.34312 | 37889 ft | 470 kts | 21° |
| 2026-05-05 15:03 | 43.11218 | 125.38382 | 37887 ft | 470 kts | 21° |
| 2026-05-05 15:04 | 43.17048 | 125.42464 | 37891 ft | 470 kts | 21° |
| 2026-05-05 15:04 | 43.22873 | 125.46554 | 37883 ft | 470 kts | 21° |
| 2026-05-05 15:05 | 43.31617 | 125.52709 | 37877 ft | 472 kts | 21° |
| 2026-05-05 15:06 | 43.37421 | 125.56803 | 37875 ft | 472 kts | 21° |
| 2026-05-05 15:06 | 43.43260 | 125.60934 | 37867 ft | 472 kts | 21° |
| 2026-05-05 15:07 | 43.49110 | 125.65083 | 37882 ft | 472 kts | 21° |
| 2026-05-05 15:07 | 43.54948 | 125.69231 | 37873 ft | 472 kts | 21° |
| 2026-05-05 15:08 | 43.60796 | 125.73396 | 37886 ft | 473 kts | 21° |
| 2026-05-05 15:08 | 43.66643 | 125.77569 | 37865 ft | 473 kts | 21° |
| 2026-05-05 15:09 | 43.72494 | 125.81753 | 37877 ft | 474 kts | 21° |
| 2026-05-05 15:09 | 43.78480 | 125.85373 | 37875 ft | 463 kts | 8° |
| 2026-05-05 15:10 | 43.84732 | 125.86832 | 37879 ft | 454 kts | 360° |
| 2026-05-05 15:10 | 43.90970 | 125.87972 | 37879 ft | 455 kts | 0° |
| 2026-05-05 15:11 | 43.97240 | 125.89260 | 37868 ft | 456 kts | 1° |
| 2026-05-05 15:11 | 44.03522 | 125.90637 | 37880 ft | 457 kts | 1° |
| 2026-05-05 15:12 | 44.09810 | 125.92024 | 37866 ft | 457 kts | 1° |
| 2026-05-05 15:12 | 44.16090 | 125.93403 | 37868 ft | 456 kts | 1° |
| 2026-05-05 15:13 | 44.22347 | 125.94776 | 37850 ft | 454 kts | 1° |
| 2026-05-05 15:13 | 44.28587 | 125.96148 | 37845 ft | 453 kts | 1° |
| 2026-05-05 15:14 | 44.34791 | 125.97513 | 37850 ft | 451 kts | 1° |
| 2026-05-05 15:14 | 44.40948 | 125.98872 | 37858 ft | 450 kts | 1° |
| 2026-05-05 15:15 | 44.47140 | 126.00240 | 37856 ft | 450 kts | 1° |
| 2026-05-05 15:15 | 44.53336 | 126.01614 | 37860 ft | 451 kts | 1° |
| 2026-05-05 15:16 | 44.59544 | 126.02960 | 37865 ft | 451 kts | 1° |
| 2026-05-05 15:16 | 44.65750 | 126.04300 | 37860 ft | 451 kts | 1° |
| 2026-05-05 15:17 | 44.71960 | 126.05650 | 37858 ft | 452 kts | 0° |
| 2026-05-05 15:17 | 44.78138 | 126.07006 | 37865 ft | 452 kts | 0° |
| 2026-05-05 15:18 | 44.84357 | 126.08386 | 37865 ft | 452 kts | 0° |
| 2026-05-05 15:18 | 44.90571 | 126.09767 | 37870 ft | 452 kts | 0° |
| 2026-05-05 15:19 | 44.96787 | 126.11150 | 37873 ft | 452 kts | 0° |
| 2026-05-05 15:19 | 45.02971 | 126.12528 | 37868 ft | 452 kts | 0° |
| 2026-05-05 15:20 | 45.09189 | 126.13918 | 37867 ft | 452 kts | 0° |
| 2026-05-05 15:20 | 45.15417 | 126.15311 | 37871 ft | 452 kts | 0° |
| 2026-05-05 15:21 | 45.21639 | 126.16705 | 37882 ft | 453 kts | 0° |
| 2026-05-05 15:21 | 45.27829 | 126.18098 | 37881 ft | 453 kts | 360° |
| 2026-05-05 15:22 | 45.34061 | 126.19503 | 37872 ft | 453 kts | 360° |
| 2026-05-05 15:22 | 45.40279 | 126.20909 | 37875 ft | 452 kts | 360° |
| 2026-05-05 15:23 | 45.46497 | 126.22317 | 37877 ft | 452 kts | 360° |
| 2026-05-05 15:23 | 45.51649 | 126.23485 | 37880 ft | 452 kts | 360° |
| 2026-05-05 15:24 | 45.57863 | 126.24887 | 37882 ft | 450 kts | 357° |
| 2026-05-05 15:24 | 45.60903 | 126.24808 | 37874 ft | 425 kts | 338° |
| 2026-05-05 15:24 | 45.63647 | 126.23509 | 37877 ft | 410 kts | 326° |
| 2026-05-05 15:24 | 45.66028 | 126.21398 | 37886 ft | 397 kts | 313° |
| 2026-05-05 15:25 | 45.68040 | 126.18734 | 37889 ft | 393 kts | 309° |
| 2026-05-05 15:25 | 45.71872 | 126.13217 | 37869 ft | 394 kts | 308° |
| 2026-05-05 15:26 | 45.75732 | 126.07623 | 37872 ft | 394 kts | 309° |
| 2026-05-05 15:26 | 45.79612 | 126.02061 | 37871 ft | 395 kts | 309° |
| 2026-05-05 15:27 | 45.83510 | 125.96499 | 37877 ft | 395 kts | 309° |
| 2026-05-05 15:27 | 45.87413 | 125.90928 | 37877 ft | 395 kts | 309° |
| 2026-05-05 15:28 | 45.91311 | 125.85354 | 37879 ft | 395 kts | 309° |
| 2026-05-05 15:28 | 45.95182 | 125.79809 | 37879 ft | 395 kts | 309° |
| 2026-05-05 15:29 | 45.99072 | 125.74220 | 37873 ft | 395 kts | 309° |
| 2026-05-05 15:29 | 46.02957 | 125.68626 | 37871 ft | 395 kts | 309° |
| 2026-05-05 15:30 | 46.06843 | 125.63018 | 37870 ft | 395 kts | 309° |
| 2026-05-05 15:30 | 46.10728 | 125.57403 | 37872 ft | 396 kts | 309° |
| 2026-05-05 15:31 | 46.14615 | 125.51771 | 37865 ft | 397 kts | 309° |
| 2026-05-05 15:31 | 46.18513 | 125.46111 | 37864 ft | 398 kts | 309° |
| 2026-05-05 15:32 | 46.22387 | 125.40478 | 37870 ft | 398 kts | 309° |
| 2026-05-05 15:32 | 46.26284 | 125.34798 | 37864 ft | 397 kts | 309° |
| 2026-05-05 15:33 | 46.30206 | 125.29153 | 37861 ft | 398 kts | 309° |
| 2026-05-05 15:33 | 46.34168 | 125.23548 | 37879 ft | 399 kts | 309° |
| 2026-05-05 15:34 | 46.38119 | 125.17947 | 37875 ft | 400 kts | 309° |
| 2026-05-05 15:34 | 46.42094 | 125.12292 | 37886 ft | 400 kts | 309° |
| 2026-05-05 15:35 | 46.46066 | 125.06617 | 37879 ft | 400 kts | 309° |
| 2026-05-05 15:35 | 46.50030 | 125.00935 | 37883 ft | 400 kts | 309° |
| 2026-05-05 15:36 | 46.53999 | 124.95237 | 37865 ft | 401 kts | 309° |
| 2026-05-05 15:36 | 46.57943 | 124.89575 | 37879 ft | 401 kts | 309° |
| 2026-05-05 15:37 | 46.61914 | 124.83851 | 37882 ft | 402 kts | 309° |
| 2026-05-05 15:37 | 46.65881 | 124.78121 | 37882 ft | 402 kts | 309° |
| 2026-05-05 15:38 | 46.69857 | 124.72367 | 37865 ft | 402 kts | 309° |
| 2026-05-05 15:38 | 46.73824 | 124.66609 | 37868 ft | 402 kts | 309° |
| 2026-05-05 15:39 | 46.77787 | 124.60846 | 37864 ft | 402 kts | 309° |
| 2026-05-05 15:39 | 46.81723 | 124.55112 | 37872 ft | 402 kts | 309° |
| 2026-05-05 15:40 | 46.85687 | 124.49327 | 37864 ft | 402 kts | 309° |
| 2026-05-05 15:40 | 46.89641 | 124.43541 | 37866 ft | 402 kts | 309° |
| 2026-05-05 15:41 | 46.93591 | 124.37739 | 37866 ft | 403 kts | 309° |
| 2026-05-05 15:41 | 46.97555 | 124.31913 | 37867 ft | 403 kts | 309° |
| 2026-05-05 15:42 | 47.01511 | 124.26083 | 37871 ft | 404 kts | 309° |
| 2026-05-05 15:42 | 47.05447 | 124.20271 | 37871 ft | 404 kts | 309° |
| 2026-05-05 15:43 | 47.09412 | 124.14407 | 37866 ft | 405 kts | 309° |
| 2026-05-05 15:43 | 47.13369 | 124.08537 | 37864 ft | 405 kts | 309° |
| 2026-05-05 15:44 | 47.17323 | 124.02652 | 37872 ft | 405 kts | 309° |
| 2026-05-05 15:44 | 47.21283 | 123.96757 | 37864 ft | 406 kts | 309° |
| 2026-05-05 15:45 | 47.25159 | 123.90733 | 37859 ft | 403 kts | 303° |
| 2026-05-05 15:45 | 47.28457 | 123.84083 | 37878 ft | 402 kts | 301° |
| 2026-05-05 15:46 | 47.31701 | 123.77376 | 37868 ft | 402 kts | 301° |
| 2026-05-05 15:46 | 47.34942 | 123.70723 | 37865 ft | 402 kts | 301° |
| 2026-05-05 15:47 | 47.38214 | 123.64040 | 37860 ft | 402 kts | 301° |
| 2026-05-05 15:47 | 47.41488 | 123.57341 | 37865 ft | 401 kts | 301° |
| 2026-05-05 15:48 | 47.44756 | 123.50640 | 37867 ft | 402 kts | 301° |
| 2026-05-05 15:48 | 47.48025 | 123.43926 | 37861 ft | 402 kts | 301° |
| 2026-05-05 15:49 | 47.51271 | 123.37243 | 37860 ft | 403 kts | 301° |
| 2026-05-05 15:49 | 47.54531 | 123.30503 | 37867 ft | 402 kts | 301° |
| 2026-05-05 15:50 | 47.57787 | 123.23754 | 37880 ft | 402 kts | 301° |
| 2026-05-05 15:50 | 47.61041 | 123.17003 | 37878 ft | 402 kts | 301° |
| 2026-05-05 15:51 | 47.64287 | 123.10258 | 37860 ft | 402 kts | 301° |
| 2026-05-05 15:51 | 47.67532 | 123.03494 | 37866 ft | 402 kts | 301° |
| 2026-05-05 15:52 | 47.70747 | 122.96767 | 37871 ft | 401 kts | 301° |
| 2026-05-05 15:52 | 47.73969 | 122.90006 | 37859 ft | 401 kts | 301° |
| 2026-05-05 15:53 | 47.77197 | 122.83226 | 37864 ft | 401 kts | 301° |
| 2026-05-05 15:53 | 47.80421 | 122.76442 | 37870 ft | 401 kts | 301° |
| 2026-05-05 15:54 | 47.83738 | 122.69738 | 37877 ft | 402 kts | 302° |
| 2026-05-05 15:54 | 47.87103 | 122.63051 | 37865 ft | 403 kts | 302° |
| 2026-05-05 15:55 | 47.90442 | 122.56400 | 37879 ft | 403 kts | 302° |
| 2026-05-05 15:55 | 47.93793 | 122.49686 | 37886 ft | 403 kts | 302° |
| 2026-05-05 15:56 | 47.97127 | 122.42969 | 37885 ft | 402 kts | 301° |
| 2026-05-05 15:56 | 48.00452 | 122.36247 | 37878 ft | 402 kts | 301° |
| 2026-05-05 15:57 | 48.03757 | 122.29547 | 37876 ft | 403 kts | 302° |
| 2026-05-05 15:57 | 48.07085 | 122.22792 | 37886 ft | 403 kts | 301° |
| 2026-05-05 15:58 | 48.10403 | 122.16039 | 37880 ft | 403 kts | 301° |
| 2026-05-05 15:58 | 48.13719 | 122.09266 | 37880 ft | 402 kts | 301° |
| 2026-05-05 15:59 | 48.17028 | 122.02501 | 37884 ft | 403 kts | 301° |
| 2026-05-05 15:59 | 48.20340 | 121.95716 | 37866 ft | 403 kts | 301° |
| 2026-05-05 16:00 | 48.23644 | 121.88919 | 37863 ft | 404 kts | 301° |
| 2026-05-05 16:00 | 48.26929 | 121.82154 | 37881 ft | 403 kts | 301° |
| 2026-05-05 16:01 | 48.30227 | 121.75337 | 37868 ft | 403 kts | 301° |
| 2026-05-05 16:01 | 48.33517 | 121.68514 | 37879 ft | 404 kts | 301° |
| 2026-05-05 16:02 | 48.36819 | 121.61667 | 37885 ft | 405 kts | 301° |
| 2026-05-05 16:02 | 48.40127 | 121.54783 | 37880 ft | 406 kts | 301° |
| 2026-05-05 16:03 | 48.43438 | 121.47870 | 37857 ft | 407 kts | 301° |
| 2026-05-05 16:03 | 48.46728 | 121.40994 | 37865 ft | 407 kts | 301° |
| 2026-05-05 16:04 | 48.50038 | 121.34040 | 37882 ft | 407 kts | 301° |
| 2026-05-05 16:04 | 48.53345 | 121.27086 | 37875 ft | 408 kts | 301° |
| 2026-05-05 16:05 | 48.56659 | 121.20102 | 37887 ft | 409 kts | 301° |
| 2026-05-05 16:05 | 48.58310 | 121.16610 | 37632 ft | 413 kts | 301° |
| 2026-05-05 16:05 | 48.59958 | 121.13120 | 37162 ft | 408 kts | 301° |
| 2026-05-05 16:05 | 48.61602 | 121.09643 | 36342 ft | 407 kts | 300° |
| 2026-05-05 16:06 | 48.63237 | 121.06180 | 35632 ft | 403 kts | 300° |
| 2026-05-05 16:06 | 48.64868 | 121.02715 | 34718 ft | 404 kts | 299° |
| 2026-05-05 16:06 | 48.66496 | 120.99252 | 33806 ft | 404 kts | 298° |
| 2026-05-05 16:06 | 48.68129 | 120.95775 | 32855 ft | 404 kts | 298° |
| 2026-05-05 16:07 | 48.69759 | 120.92301 | 31839 ft | 405 kts | 298° |
| 2026-05-05 16:07 | 48.71388 | 120.88822 | 30783 ft | 405 kts | 298° |
| 2026-05-05 16:07 | 48.72998 | 120.85378 | 29719 ft | 406 kts | 297° |
| 2026-05-05 16:07 | 48.74626 | 120.81895 | 28645 ft | 404 kts | 298° |
| 2026-05-05 16:08 | 48.76251 | 120.78418 | 27572 ft | 402 kts | 298° |
| 2026-05-05 16:08 | 48.77861 | 120.74964 | 26394 ft | 401 kts | 298° |
| 2026-05-05 16:08 | 48.79470 | 120.71503 | 25136 ft | 401 kts | 299° |
| 2026-05-05 16:08 | 48.81076 | 120.68047 | 24016 ft | 398 kts | 299° |
| 2026-05-05 16:09 | 48.82664 | 120.64628 | 22951 ft | 393 kts | 300° |
| 2026-05-05 16:09 | 48.84228 | 120.61260 | 21913 ft | 387 kts | 300° |
| 2026-05-05 16:09 | 48.85765 | 120.57939 | 20883 ft | 382 kts | 301° |
| 2026-05-05 16:09 | 48.87286 | 120.54652 | 19882 ft | 376 kts | 301° |
| 2026-05-05 16:10 | 48.88785 | 120.51398 | 18868 ft | 374 kts | 302° |
| 2026-05-05 16:10 | 48.90249 | 120.48228 | 17892 ft | 369 kts | 303° |
| 2026-05-05 16:10 | 48.91714 | 120.45053 | 16914 ft | 365 kts | 303° |
| 2026-05-05 16:10 | 48.93165 | 120.41900 | 15952 ft | 361 kts | 303° |
| 2026-05-05 16:11 | 48.94597 | 120.38787 | 15023 ft | 357 kts | 303° |
| 2026-05-05 16:11 | 48.98337 | 120.30636 | 12621 ft | 348 kts | 303° |
| 2026-05-05 16:12 | 48.99717 | 120.27619 | 11738 ft | 345 kts | 304° |
| 2026-05-05 16:12 | 49.02420 | 120.21702 | 10561 ft | 327 kts | 305° |
| 2026-05-05 16:13 | 49.06120 | 120.13579 | 10266 ft | 295 kts | 305° |
| 2026-05-05 16:13 | 49.07257 | 120.11079 | 10137 ft | 280 kts | 305° |
| 2026-05-05 16:13 | 49.08341 | 120.08692 | 10029 ft | 266 kts | 306° |
| 2026-05-05 16:14 | 49.10395 | 120.04172 | 9390 ft | 258 kts | 306° |
| 2026-05-05 16:14 | 49.12432 | 119.99678 | 8622 ft | 256 kts | 306° |
| 2026-05-05 16:15 | 49.14450 | 119.95222 | 7867 ft | 254 kts | 307° |
| 2026-05-05 16:15 | 49.16391 | 119.90912 | 7528 ft | 236 kts | 307° |
| 2026-05-05 16:16 | 49.18179 | 119.86952 | 7321 ft | 217 kts | 307° |
| 2026-05-05 16:16 | 49.19816 | 119.83321 | 7128 ft | 200 kts | 307° |
| 2026-05-05 16:17 | 49.21095 | 119.79625 | 6770 ft | 196 kts | 296° |
| 2026-05-05 16:17 | 49.21641 | 119.77713 | 6565 ft | 196 kts | 297° |
| 2026-05-05 16:18 | 49.22731 | 119.73934 | 6108 ft | 189 kts | 297° |
| 2026-05-05 16:18 | 49.23255 | 119.72122 | 5878 ft | 184 kts | 297° |
| 2026-05-05 16:18 | 49.24269 | 119.68621 | 5435 ft | 177 kts | 296° |
| 2026-05-05 16:19 | 49.24571 | 119.66818 | 5220 ft | 178 kts | 271° |
| 2026-05-05 16:19 | 49.24241 | 119.64979 | 5037 ft | 185 kts | 241° |
| 2026-05-05 16:19 | 49.22081 | 119.63241 | 4625 ft | 189 kts | 171° |
| 2026-05-05 16:20 | 49.20458 | 119.65898 | 4204 ft | 176 kts | 103° |
| 2026-05-05 16:20 | 49.20148 | 119.69586 | 3686 ft | 173 kts | 90° |
| 2026-05-05 16:21 | 49.20052 | 119.73189 | 3245 ft | 159 kts | 91° |
| 2026-05-05 16:22 | 49.20276 | 119.77774 | 2661 ft | 139 kts | 83° |
| 2026-05-05 16:22 | 49.20467 | 119.80699 | 2244 ft | 138 kts | 84° |
| 2026-05-05 16:23 | 49.20595 | 119.82698 | 2149 ft | 39 kts | 78° |
| 2026-05-05 16:23 | 49.20625 | 119.83099 | 2151 ft | 37 kts | 88° |
| 2026-05-05 16:23 | 49.20673 | 119.83783 | 2147 ft | 25 kts | 86° |
| 2026-05-05 16:24 | 49.20687 | 119.84038 | 2146 ft | 23 kts | 85° |
| 2026-05-05 16:24 | 49.20700 | 119.84278 | 2145 ft | 22 kts | 85° |
| 2026-05-05 16:24 | 49.20709 | 119.84450 | 2141 ft | 0 kts | 84° |
| 2026-05-05 16:25 | 49.20710 | 119.84455 | 2143 ft | 1 kts | 84° |
| 2026-05-05 16:25 | 49.21001 | 119.81739 | 2155 ft | 0 kts | 353° |